Time;durP1;ratioP1;P1;durP2;ratioP2;P2;SDS_P1;SDS_P2;PMS_P1;PMS_P2;Temp;Humidity;BMP_temperature;BMP_pressure;BME280_temperature;BME280_humidity;BME280_pressure;Samples;Min_cycle;Max_cycle;Signal;HPM_P1;HPM_P2
2022/02/18 00:01:28;;;;;;;91.18;56.20;;;7.80;99.90;;;;;;4827700;29;20165;-81
2022/02/18 00:07:46;;;;;;;87.03;58.97;;;7.80;99.90;;;;;;4808070;29;20204;-81
2022/02/18 00:14:20;;;;;;;92.97;56.47;;;7.80;99.90;;;;;;4808778;29;20201;-81
2022/02/18 00:17:39;;;;;;;;;;;;;;;;;;;;;
2022/02/18 00:24:28;;;;;;;;;;;;;;;;;;;;;
2022/02/18 00:26:54;;;;;;;97.60;58.05;;;7.90;99.90;;;;;;4857657;29;20198;-82
2022/02/18 00:30:14;;;;;;;96.88;55.88;;;8.00;99.90;;;;;;4883228;29;20174;-82
2022/02/18 00:33:32;;;;;;;102.63;67.43;;;8.00;99.90;;;;;;4882581;29;20179;-82
2022/02/18 00:40:08;;;;;;;90.75;52.83;;;8.00;99.90;;;;;;4789982;30;20186;-82
2022/02/18 00:43:13;;;;;;;;;;;;;;;;;;;;;
2022/02/18 00:46:36;;;;;;;;;;;;;;;;;;;;;
2022/02/18 00:49:34;;;;;;;92.93;48.25;;;8.00;99.90;;;;;;4844253;29;20187;-81
2022/02/18 00:52:49;;;;;;;88.72;51.70;;;8.10;99.90;;;;;;4844335;29;20191;-81
2022/02/18 00:55:32;;;;;;;92.25;57.22;;;8.10;99.90;;;;;;4843718;29;20204;-82
2022/02/18 00:58:25;;;;;;;95.90;58.08;;;8.00;99.90;;;;;;4844339;29;20184;-81
2022/02/18 01:01:02;;;;;;;102.13;75.80;;;8.00;99.90;;;;;;4882422;29;20167;-82
2022/02/18 01:04:06;;;;;;;92.05;58.97;;;8.00;99.90;;;;;;4883862;29;20165;-82
2022/02/18 01:07:06;;;;;;;89.68;55.13;;;8.10;99.90;;;;;;4881676;29;20198;-82
2022/02/18 01:09:54;;;;;;;98.72;61.70;;;8.10;99.90;;;;;;4883583;29;20687;-82
2022/02/18 01:15:56;;;;;;;95.40;53.55;;;8.10;99.90;;;;;;4870391;29;20198;-81
2022/02/18 01:22:00;;;;;;;92.20;57.75;;;8.10;99.90;;;;;;4882730;29;20170;-82
2022/02/18 01:24:59;;;;;;;97.78;56.63;;;8.10;99.90;;;;;;4858274;29;20190;-82
2022/02/18 01:27:54;;;;;;;90.13;53.13;;;8.10;99.90;;;;;;4883619;29;20147;-82
2022/02/18 01:30:51;;;;;;;90.03;53.67;;;8.20;99.90;;;;;;4883505;29;20158;-82
2022/02/18 01:33:42;;;;;;;92.13;57.63;;;8.10;99.90;;;;;;4881407;29;20253;-82
2022/02/18 01:37:13;;;;;;;95.53;63.40;;;8.10;99.90;;;;;;4880472;29;20206;-82
2022/02/18 01:39:47;;;;;;;94.93;49.63;;;8.00;99.90;;;;;;4828602;29;20180;-82
2022/02/18 01:43:37;;;;;;;92.25;58.92;;;8.00;99.90;;;;;;4859809;29;20178;-82
2022/02/18 01:46:19;;;;;;;89.50;55.17;;;7.90;99.90;;;;;;4853357;23;20225;-82
2022/02/18 01:49:28;;;;;;;104.45;78.25;;;7.90;99.90;;;;;;4862660;29;20206;-82
2022/02/18 01:52:27;;;;;;;94.50;54.40;;;7.90;99.90;;;;;;4878142;29;20663;-82
2022/02/18 01:55:33;;;;;;;97.18;60.38;;;8.00;99.90;;;;;;4877595;29;20232;-82
2022/02/18 01:58:43;;;;;;;103.00;72.30;;;8.00;99.90;;;;;;4881921;29;20182;-82
2022/02/18 02:05:38;;;;;;;;;;;;;;;;;;;;;
2022/02/18 02:09:17;;;;;;;115.45;96.35;;;8.00;99.90;;;;;;4807464;29;20180;-82
2022/02/18 02:12:29;;;;;;;111.57;98.28;;;7.90;99.90;;;;;;4772988;30;20236;-81
2022/02/18 02:15:57;;;;;;;113.22;90.15;;;8.00;99.90;;;;;;4759424;30;20217;-82
2022/02/18 02:22:48;;;;;;;120.95;92.60;;;8.10;99.90;;;;;;4847438;29;20180;-82
2022/02/18 02:26:08;;;;;;;106.38;82.50;;;8.00;99.90;;;;;;4830369;29;20299;-82
2022/02/18 02:32:51;;;;;;;89.88;45.67;;;8.00;99.90;;;;;;4774685;30;20170;-82
2022/02/18 02:38:51;;;;;;;92.30;50.90;;;8.00;99.90;;;;;;4829545;29;20169;-82
2022/02/18 02:44:45;;;;;;;92.22;46.90;;;8.00;99.90;;;;;;4818221;29;20645;-82
2022/02/18 02:50:54;;;;;;;;;;;;;;;;;;;;;
2022/02/18 02:57:29;;;;;;;89.65;55.75;;;8.10;99.90;;;;;;4885916;29;20193;-82
2022/02/18 03:00:17;;;;;;;92.07;58.03;;;8.10;99.90;;;;;;4853438;29;20199;-81
2022/02/18 03:03:32;;;;;;;94.85;62.47;;;8.10;99.90;;;;;;4885605;29;20170;-81
2022/02/18 03:06:12;;;;;;;92.95;61.20;;;8.10;99.90;;;;;;4883898;29;20678;-82
2022/02/18 03:09:30;;;;;;;;;;;;;;;;;;;;;
2022/02/18 03:12:17;;;;;;;86.57;50.22;;;8.10;99.90;;;;;;4885351;29;20173;-81
2022/02/18 03:26:12;;;;;;;92.22;50.53;;;8.10;99.90;;;;;;4864937;29;20686;-81
2022/02/18 03:29:10;;;;;;;;;;;;;;;;;;;;;
2022/02/18 03:35:30;;;;;;;;;;;;;;;;;;;;;
2022/02/18 03:39:00;;;;;;;;;;;;;;;;;;;;;
2022/02/18 03:42:11;;;;;;;77.57;19.55;;;8.20;99.90;;;;;;4788484;30;20198;-82
2022/02/18 03:48:33;;;;;;;;;;;;;;;;;;;;;
2022/02/18 03:51:16;;;;;;;72.57;9.57;;;8.20;99.90;;;;;;4791498;29;20747;-82
2022/02/18 03:57:26;;;;;;;71.45;10.45;;;8.20;99.90;;;;;;4791060;29;20229;-82
2022/02/18 04:06:23;;;;;;;70.20;10.02;;;8.00;99.90;;;;;;4836309;29;20284;-82
2022/02/18 04:09:18;;;;;;;73.20;9.57;;;8.00;99.90;;;;;;4845651;29;20180;-82
2022/02/18 04:18:23;;;;;;;;;;;;;;;;;;;;;
2022/02/18 04:21:46;;;;;;;;;;;;;;;;;;;;;
2022/02/18 04:25:04;;;;;;;;;;;;;;;;;;;;;
2022/02/18 04:27:49;;;;;;;82.50;22.20;;;7.80;99.90;;;;;;4884516;29;20241;-82
2022/02/18 04:31:00;;;;;;;;;;;;;;;;;;;;;
2022/02/18 04:37:20;;;;;;;93.93;39.55;;;7.80;99.90;;;;;;4877834;29;20187;-82
2022/02/18 04:40:20;;;;;;;84.10;35.58;;;7.80;99.90;;;;;;4883582;29;20194;-82
2022/02/18 04:44:39;;;;;;;91.60;51.00;;;7.80;99.90;;;;;;4883310;29;20198;-82
2022/02/18 04:47:27;;;;;;;89.15;35.92;;;7.70;99.90;;;;;;4859086;29;20224;-82
2022/02/18 04:50:02;;;;;;;86.22;42.83;;;7.70;99.90;;;;;;4870123;29;20178;-82
2022/02/18 04:55:53;;;;;;;95.10;55.17;;;7.70;99.90;;;;;;4883590;29;20202;-82
2022/02/18 04:58:19;;;;;;;91.50;64.43;;;7.60;99.90;;;;;;4947373;23;20294;-87
2022/02/18 05:00:44;;;;;;;93.90;64.60;;;7.60;99.90;;;;;;4885709;29;20171;-86
2022/02/18 05:03:10;;;;;;;91.77;65.77;;;7.70;99.90;;;;;;4886036;29;20170;-86
2022/02/18 05:05:36;;;;;;;94.90;50.40;;;7.70;99.90;;;;;;4885269;29;20556;-87
2022/02/18 05:08:01;;;;;;;79.87;30.03;;;7.80;99.90;;;;;;4884376;29;20265;-86
2022/02/18 05:10:27;;;;;;;92.97;38.37;;;7.80;99.90;;;;;;4885917;29;20223;-86
2022/02/18 05:12:53;;;;;;;79.53;31.77;;;7.80;99.90;;;;;;4885855;29;20171;-86
2022/02/18 05:15:19;;;;;;;87.07;43.53;;;7.80;99.90;;;;;;4885449;29;20470;-87
2022/02/18 05:17:48;;;;;;;91.27;54.63;;;7.80;99.90;;;;;;4883763;29;20273;-87
2022/02/18 05:20:17;;;;;;;91.25;53.70;;;7.80;99.90;;;;;;4885965;29;20490;-87
2022/02/18 05:22:44;;;;;;;92.18;58.15;;;7.80;99.90;;;;;;4885580;29;20657;-86
2022/02/18 05:25:11;;;;;;;92.18;60.80;;;7.80;99.90;;;;;;4885592;29;20195;-86
2022/02/18 05:27:43;;;;;;;100.50;67.75;;;7.80;99.90;;;;;;4885156;29;20181;-86
2022/02/18 05:30:09;;;;;;;92.20;62.65;;;7.80;99.90;;;;;;4885207;29;20171;-86
2022/02/18 05:32:35;;;;;;;93.50;62.47;;;7.70;99.90;;;;;;4885714;29;20179;-86
2022/02/18 05:35:00;;;;;;;89.47;60.47;;;7.70;99.90;;;;;;4883341;29;20570;-86
2022/02/18 05:37:26;;;;;;;90.23;63.03;;;7.80;99.90;;;;;;4884546;29;20213;-86
2022/02/18 05:39:52;;;;;;;91.73;62.13;;;7.70;99.90;;;;;;4884567;29;20166;-86
2022/02/18 05:42:17;;;;;;;95.37;70.17;;;7.70;99.90;;;;;;4883724;29;20635;-86
2022/02/18 05:44:43;;;;;;;97.73;64.10;;;7.70;99.90;;;;;;4884495;29;20181;-86
2022/02/18 05:47:08;;;;;;;106.00;69.23;;;7.70;99.90;;;;;;4884623;29;20553;-86
2022/02/18 05:49:34;;;;;;;94.07;66.97;;;7.70;99.90;;;;;;4884699;29;20166;-86
2022/02/18 05:52:00;;;;;;;110.27;62.53;;;7.70;99.90;;;;;;4884538;29;20665;-85
2022/02/18 05:54:25;;;;;;;95.10;67.60;;;7.80;99.90;;;;;;4884531;29;20194;-86
2022/02/18 05:56:52;;;;;;;90.70;60.77;;;7.80;99.90;;;;;;4885350;29;20189;-86
2022/02/18 05:59:18;;;;;;;97.53;73.60;;;7.80;99.90;;;;;;4885635;29;20225;-86
2022/02/18 06:01:45;;;;;;;134.80;121.88;;;7.80;99.90;;;;;;4885715;29;20205;-87
2022/02/18 06:04:11;;;;;;;180.65;166.38;;;7.70;99.90;;;;;;4884555;29;20182;-86
2022/02/18 06:06:41;;;;;;;194.50;178.73;;;7.60;99.90;;;;;;4885056;29;20205;-86
2022/02/18 06:09:07;;;;;;;215.07;198.60;;;7.60;99.90;;;;;;4885412;29;20222;-86
2022/02/18 06:11:33;;;;;;;214.00;198.93;;;7.60;99.90;;;;;;4885400;29;20179;-86
2022/02/18 06:13:59;;;;;;;212.83;197.27;;;7.60;99.90;;;;;;4884463;29;20450;-86
2022/02/18 06:16:25;;;;;;;198.73;183.15;;;7.50;99.90;;;;;;4885430;29;20424;-86
2022/02/18 06:18:50;;;;;;;208.80;192.95;;;7.50;99.90;;;;;;4883925;29;20174;-86
2022/02/18 06:21:16;;;;;;;208.23;193.77;;;7.50;99.90;;;;;;4884986;29;20670;-86
2022/02/18 06:23:42;;;;;;;179.67;165.20;;;7.50;99.90;;;;;;4885163;29;20178;-87
2022/02/18 06:26:07;;;;;;;189.60;174.57;;;7.50;99.90;;;;;;4884386;29;20564;-86
2022/02/18 06:28:33;;;;;;;148.13;135.33;;;7.50;99.90;;;;;;4883666;29;20181;-86
2022/02/18 06:30:59;;;;;;;161.77;147.87;;;7.50;99.90;;;;;;4885402;29;20679;-86
2022/02/18 06:33:24;;;;;;;177.90;163.50;;;7.50;99.90;;;;;;4882871;29;20292;-86
2022/02/18 06:35:50;;;;;;;140.67;127.60;;;7.50;99.90;;;;;;4883566;29;20282;-85
2022/02/18 06:38:16;;;;;;;143.17;130.07;;;7.60;99.90;;;;;;4884703;29;20248;-86
2022/02/18 06:40:41;;;;;;;143.50;129.47;;;7.60;99.90;;;;;;4884074;29;20994;-86
2022/02/18 06:43:07;;;;;;;141.60;128.00;;;7.60;99.90;;;;;;4884994;29;20230;-86
2022/02/18 06:45:34;;;;;;;129.30;117.17;;;7.70;99.90;;;;;;4884769;29;20186;-86
2022/02/18 06:47:59;;;;;;;112.63;100.63;;;7.70;99.90;;;;;;4883501;29;20415;-86
2022/02/18 06:50:25;;;;;;;114.90;102.93;;;7.80;99.90;;;;;;4885751;29;20258;-86
2022/02/18 06:52:51;;;;;;;111.80;99.70;;;7.80;99.90;;;;;;4885127;29;20250;-86
2022/02/18 06:55:21;;;;;;;106.43;72.80;;;7.80;99.90;;;;;;4884497;29;20194;-86
2022/02/18 06:57:47;;;;;;;105.50;70.63;;;7.80;99.90;;;;;;4883638;29;20655;-87
2022/02/18 07:00:15;;;;;;;95.10;63.07;;;7.90;99.90;;;;;;4888118;29;20178;-86
2022/02/18 07:02:41;;;;;;;95.63;63.38;;;7.90;99.90;;;;;;4888474;29;20166;-86
2022/02/18 07:05:09;;;;;;;97.18;63.70;;;7.90;99.90;;;;;;4888991;29;20220;-85
2022/02/18 07:07:35;;;;;;;92.20;58.10;;;7.90;99.90;;;;;;4888956;29;20163;-87
2022/02/18 07:10:06;;;;;;;98.70;74.63;;;7.90;99.90;;;;;;4889112;29;20181;-86
2022/02/18 07:12:33;;;;;;;96.85;72.53;;;7.90;99.90;;;;;;4886549;29;20185;-86
2022/02/18 07:14:59;;;;;;;110.75;98.95;;;7.90;99.90;;;;;;4888201;29;20213;-87
2022/02/18 07:17:28;;;;;;;99.63;63.97;;;7.80;99.90;;;;;;4888044;29;20663;-87
2022/02/18 07:19:55;;;;;;;112.15;66.25;;;7.80;99.90;;;;;;4888872;29;20182;-87
2022/02/18 07:22:21;;;;;;;88.13;54.33;;;7.80;99.90;;;;;;4889064;29;20203;-87
2022/02/18 07:24:48;;;;;;;99.85;65.18;;;7.90;99.90;;;;;;4889282;29;20193;-86
2022/02/18 07:27:13;;;;;;;87.38;48.08;;;7.90;99.90;;;;;;4887292;29;20175;-87
2022/02/18 07:29:40;;;;;;;84.20;44.83;;;7.90;99.90;;;;;;4887631;29;20174;-87
2022/02/18 07:32:06;;;;;;;91.00;49.45;;;7.90;99.90;;;;;;4888665;29;20175;-86
2022/02/18 07:34:32;;;;;;;97.47;48.03;;;8.00;99.90;;;;;;4887157;29;20206;-86
2022/02/18 07:36:57;;;;;;;86.97;46.30;;;8.00;99.90;;;;;;4888127;29;20257;-86
2022/02/18 07:39:23;;;;;;;93.17;42.70;;;8.10;99.90;;;;;;4887587;29;20171;-86
2022/02/18 07:41:49;;;;;;;104.37;50.50;;;8.10;99.90;;;;;;4887846;29;20249;-86
2022/02/18 07:44:14;;;;;;;85.67;48.97;;;8.10;99.90;;;;;;4888740;29;20181;-86
2022/02/18 07:46:40;;;;;;;92.00;50.93;;;8.20;99.90;;;;;;4887752;29;20198;-87
2022/02/18 07:49:06;;;;;;;92.17;46.50;;;8.20;99.90;;;;;;4888668;29;20171;-87
2022/02/18 07:51:32;;;;;;;89.30;43.67;;;8.30;99.90;;;;;;4889441;29;20166;-87
2022/02/18 07:53:58;;;;;;;92.13;47.13;;;8.40;99.90;;;;;;4886594;29;20451;-87
2022/02/18 07:56:23;;;;;;;88.17;38.47;;;8.50;99.90;;;;;;4888878;29;20215;-87
2022/02/18 07:58:52;;;;;;;84.97;46.33;;;8.50;99.90;;;;;;4888944;29;20189;-87
2022/02/18 08:01:18;;;;;;;93.20;38.83;;;8.50;99.90;;;;;;4886746;29;20167;-87
2022/02/18 08:03:51;;;;;;;80.37;33.93;;;8.70;99.90;;;;;;4886965;29;20167;-87
2022/02/18 08:06:17;;;;;;;88.75;43.45;;;8.70;99.90;;;;;;4887877;29;20461;-87
2022/02/18 08:08:43;;;;;;;85.20;41.25;;;8.80;99.90;;;;;;4886645;29;20542;-87
2022/02/18 08:11:13;;;;;;;80.95;35.38;;;8.80;99.90;;;;;;4887753;29;20223;-86
2022/02/18 08:13:39;;;;;;;88.40;46.92;;;8.80;99.90;;;;;;4888010;29;20281;-87
2022/02/18 08:16:05;;;;;;;85.50;45.20;;;8.90;99.90;;;;;;4887442;29;20237;-87
2022/02/18 08:18:31;;;;;;;84.60;40.88;;;8.90;99.90;;;;;;4887320;29;20524;-87
2022/02/18 08:20:56;;;;;;;81.60;43.30;;;9.00;99.90;;;;;;4887087;29;20171;-87
2022/02/18 08:23:22;;;;;;;89.77;47.37;;;9.00;99.90;;;;;;4887122;29;20167;-86
2022/02/18 08:25:48;;;;;;;84.50;46.37;;;9.00;99.90;;;;;;4886595;29;20204;-86
2022/02/18 08:28:14;;;;;;;87.10;43.90;;;9.00;99.90;;;;;;4887359;29;20178;-87
2022/02/18 08:30:39;;;;;;;86.57;43.90;;;9.10;99.90;;;;;;4887267;29;20177;-86
2022/02/18 08:33:05;;;;;;;86.80;46.80;;;9.10;99.90;;;;;;4885564;29;20487;-86
2022/02/18 08:35:31;;;;;;;83.80;45.70;;;9.10;99.90;;;;;;4885759;29;20194;-86
2022/02/18 08:37:58;;;;;;;94.90;58.07;;;9.10;99.90;;;;;;4885522;29;20427;-86
2022/02/18 08:40:24;;;;;;;85.50;55.03;;;9.10;99.90;;;;;;4886723;29;20416;-86
2022/02/18 08:42:51;;;;;;;90.43;49.70;;;9.20;99.90;;;;;;4886652;29;20531;-86
2022/02/18 08:45:17;;;;;;;99.18;75.20;;;9.30;99.90;;;;;;4885276;29;20242;-86
2022/02/18 08:47:43;;;;;;;86.78;44.40;;;9.30;99.90;;;;;;4885361;29;20175;-86
2022/02/18 08:50:09;;;;;;;87.13;44.77;;;9.30;99.90;;;;;;4885806;29;20642;-87
2022/02/18 08:52:36;;;;;;;85.07;42.40;;;9.40;99.90;;;;;;4887616;29;20205;-87
2022/02/18 08:55:04;;;;;;;87.47;50.70;;;9.40;99.90;;;;;;4887108;29;20194;-86
2022/02/18 08:57:31;;;;;;;94.07;53.17;;;9.50;99.90;;;;;;4886983;29;20182;-86
2022/02/18 08:59:56;;;;;;;94.68;49.78;;;9.50;99.90;;;;;;4887095;29;20159;-86
2022/02/18 09:02:24;;;;;;;94.97;69.93;;;9.60;99.90;;;;;;4887404;29;20170;-87
2022/02/18 09:04:50;;;;;;;93.88;68.13;;;9.70;99.90;;;;;;4887511;29;20177;-86
2022/02/18 09:07:16;;;;;;;82.22;44.90;;;9.70;99.90;;;;;;4885088;29;20551;-87
2022/02/18 09:09:42;;;;;;;82.00;47.67;;;9.70;99.90;;;;;;4885345;29;20177;-87
2022/02/18 09:12:08;;;;;;;84.77;47.33;;;9.80;99.90;;;;;;4884788;29;20183;-86
2022/02/18 09:14:33;;;;;;;82.90;43.33;;;9.90;99.90;;;;;;4885980;29;20190;-86
2022/02/18 09:16:59;;;;;;;81.50;46.93;;;10.00;99.90;;;;;;4886605;29;20427;-87
2022/02/18 09:19:24;;;;;;;79.40;42.33;;;10.10;99.90;;;;;;4886309;29;20623;-86
2022/02/18 09:21:50;;;;;;;80.43;47.30;;;10.30;99.90;;;;;;4884759;29;20179;-87
2022/02/18 09:24:16;;;;;;;80.23;45.53;;;10.30;99.90;;;;;;4886313;29;20643;-86
2022/02/18 09:26:42;;;;;;;81.88;49.92;;;10.50;99.90;;;;;;4885766;29;20187;-87
2022/02/18 09:29:08;;;;;;;118.60;106.67;;;10.60;99.90;;;;;;4885492;29;20207;-86
2022/02/18 09:31:35;;;;;;;85.07;55.93;;;10.70;99.90;;;;;;4885044;29;20203;-86
2022/02/18 09:34:00;;;;;;;79.78;45.58;;;10.70;99.90;;;;;;4884804;29;20209;-85
2022/02/18 09:36:27;;;;;;;79.63;46.13;;;10.80;99.90;;;;;;4884013;29;20666;-87
2022/02/18 09:38:53;;;;;;;76.75;36.92;;;10.80;99.90;;;;;;4884597;29;20690;-86
2022/02/18 09:41:18;;;;;;;78.90;38.33;;;10.90;99.90;;;;;;4884794;29;20258;-86
2022/02/18 09:43:46;;;;;;;78.20;42.00;;;11.00;99.90;;;;;;4883558;29;20185;-86
2022/02/18 09:46:12;;;;;;;78.13;42.80;;;11.10;99.90;;;;;;4885886;29;20187;-86
2022/02/18 09:48:38;;;;;;;81.50;45.00;;;11.10;99.90;;;;;;4868989;29;20277;-86
2022/02/18 09:51:04;;;;;;;79.27;42.40;;;11.10;99.90;;;;;;4883254;29;20205;-87
2022/02/18 09:53:31;;;;;;;82.95;51.25;;;11.10;99.90;;;;;;4885896;29;20860;-87
2022/02/18 09:55:57;;;;;;;82.22;50.88;;;11.10;99.90;;;;;;4884726;29;20205;-87
2022/02/18 09:58:24;;;;;;;93.22;67.28;;;11.20;99.90;;;;;;4884151;29;20186;-86
2022/02/18 10:00:50;;;;;;;82.45;51.40;;;11.20;99.90;;;;;;4886749;29;20230;-86
2022/02/18 10:03:16;;;;;;;88.15;58.22;;;11.30;99.90;;;;;;4885642;29;20178;-86
2022/02/18 10:05:41;;;;;;;84.47;58.83;;;11.40;99.90;;;;;;4886931;29;20198;-87
2022/02/18 10:08:15;;;;;;;94.40;83.97;;;11.40;99.90;;;;;;4887013;29;20415;-87
2022/02/18 10:10:55;;;;;;;83.38;55.58;;;11.40;99.90;;;;;;4885650;29;20198;-87
2022/02/18 10:13:30;;;;;;;84.65;56.72;;;11.50;99.90;;;;;;4886928;29;20182;-87
2022/02/18 10:16:00;;;;;;;83.45;53.17;;;11.60;99.90;;;;;;4885782;29;20194;-87
2022/02/18 10:18:27;;;;;;;93.45;72.40;;;11.70;99.90;;;;;;4885713;29;20695;-86
2022/02/18 10:20:54;;;;;;;84.03;55.75;;;11.80;1.00;;;;;;4886143;29;20576;-86
2022/02/18 10:23:21;;;;;;;89.90;73.50;;;11.80;99.90;;;;;;4885002;29;20563;-86
2022/02/18 10:25:52;;;;;;;85.85;59.95;;;11.90;99.90;;;;;;4885828;29;20205;-85
2022/02/18 10:28:21;;;;;;;95.60;84.22;;;11.90;99.90;;;;;;4887706;29;20528;-87
2022/02/18 10:30:48;;;;;;;124.75;112.80;;;12.00;99.90;;;;;;4885970;29;20193;-86
2022/02/18 10:33:20;;;;;;;120.28;108.90;;;12.10;99.90;;;;;;4886794;29;20170;-87
2022/02/18 10:35:47;;;;;;;98.05;87.45;;;12.20;43.30;;;;;;4887465;29;20190;-86
2022/02/18 10:38:14;;;;;;;135.23;123.03;;;12.30;21.40;;;;;;4887486;29;20230;-86
2022/02/18 10:40:45;;;;;;;127.13;115.32;;;12.30;1.00;;;;;;4889053;29;20170;-86
2022/02/18 10:43:14;;;;;;;130.77;118.35;;;12.40;99.90;;;;;;4890617;29;20163;-87
2022/02/18 10:46:01;;;;;;;87.75;53.53;;;12.50;99.90;;;;;;4890111;29;20187;-86
2022/02/18 10:48:33;;;;;;;92.75;76.22;;;12.60;99.90;;;;;;4889407;29;20393;-87
2022/02/18 10:51:07;;;;;;;80.43;43.72;;;12.60;99.90;;;;;;4890297;29;20170;-86
2022/02/18 10:53:44;;;;;;;83.93;48.83;;;12.60;99.90;;;;;;4890320;29;20188;-87
2022/02/18 10:56:12;;;;;;;82.00;46.30;;;12.60;99.90;;;;;;4889519;29;20194;-86
2022/02/18 10:58:45;;;;;;;82.22;49.78;;;12.60;99.90;;;;;;4898356;23;20297;-83
2022/02/18 11:01:15;;;;;;;78.85;37.72;;;12.70;99.90;;;;;;4885257;29;20158;-84
2022/02/18 11:03:46;;;;;;;77.65;36.30;;;12.70;99.90;;;;;;4885888;29;20197;-84
2022/02/18 11:06:28;;;;;;;75.32;27.92;;;12.80;99.90;;;;;;4885890;29;20674;-84
2022/02/18 11:09:07;;;;;;;75.38;27.20;;;12.90;99.90;;;;;;4885683;29;20587;-84
2022/02/18 11:11:38;;;;;;;74.47;30.05;;;13.00;99.90;;;;;;4885739;29;20165;-84
2022/02/18 11:14:12;;;;;;;72.30;23.40;;;13.00;95.40;;;;;;4885218;29;20191;-84
2022/02/18 11:16:42;;;;;;;76.15;30.23;;;13.00;92.40;;;;;;4885591;29;20254;-84
2022/02/18 11:19:08;;;;;;;72.97;23.10;;;12.90;91.80;;;;;;4884335;29;20175;-83
2022/02/18 11:21:34;;;;;;;70.80;20.00;;;13.00;88.10;;;;;;4884440;29;20230;-84
2022/02/18 11:24:02;;;;;;;71.30;21.57;;;12.90;96.10;;;;;;4884500;29;20233;-83
2022/02/18 11:26:30;;;;;;;70.43;19.35;;;12.90;85.30;;;;;;4885228;29;20430;-83
2022/02/18 11:29:02;;;;;;;71.18;18.95;;;12.90;72.60;;;;;;4885796;29;20634;-83
2022/02/18 11:31:45;;;;;;;72.03;23.00;;;12.90;72.50;;;;;;4885606;29;20184;-83
2022/02/18 11:34:36;;;;;;;76.00;31.15;;;13.00;56.50;;;;;;4885454;29;20182;-83
2022/02/18 11:37:39;;;;;;;72.68;25.42;;;13.00;49.70;;;;;;4885754;29;20186;-84
2022/02/18 11:40:46;;;;;;;70.90;18.35;;;13.00;48.10;;;;;;4885600;29;20174;-84
2022/02/18 11:43:34;;;;;;;74.63;21.92;;;13.00;50.70;;;;;;4885544;29;20196;-83
2022/02/18 11:46:05;;;;;;;71.20;21.10;;;13.10;42.70;;;;;;4885810;29;20190;-83
2022/02/18 11:48:45;;;;;;;79.82;31.88;;;13.10;32.20;;;;;;4885714;29;20212;-84
2022/02/18 11:51:19;;;;;;;69.93;17.20;;;13.10;16.50;;;;;;4885178;29;20162;-84
2022/02/18 11:53:50;;;;;;;69.57;17.02;;;13.20;17.20;;;;;;4884890;29;20193;-83
2022/02/18 11:56:39;;;;;;;68.70;14.23;;;13.20;1.00;;;;;;4885204;29;20730;-85
2022/02/18 11:59:05;;;;;;;69.28;15.15;;;13.20;5.00;;;;;;4885675;29;20186;-83
2022/02/18 12:02:07;;;;;;;68.57;13.87;;;13.20;7.10;;;;;;4885374;29;20631;-84
2022/02/18 12:04:33;;;;;;;74.93;20.92;;;13.30;1.00;;;;;;4877203;29;20836;-84
2022/02/18 12:07:41;;;;;;;72.10;18.02;;;13.20;14.40;;;;;;4885360;29;20257;-83
2022/02/18 12:10:09;;;;;;;70.43;13.20;;;13.20;34.90;;;;;;4884910;29;20163;-83
2022/02/18 12:12:37;;;;;;;68.68;13.18;;;13.20;99.90;;;;;;4884966;29;20504;-83
2022/02/18 12:15:17;;;;;;;70.03;16.60;;;13.20;99.90;;;;;;4886472;29;20206;-84
2022/02/18 12:17:51;;;;;;;69.55;14.80;;;13.30;99.90;;;;;;4883398;29;20205;-84
2022/02/18 12:20:30;;;;;;;68.70;13.43;;;13.40;99.90;;;;;;4882818;29;20198;-84
2022/02/18 12:22:58;;;;;;;68.18;13.20;;;13.40;99.90;;;;;;4884666;29;20159;-84
2022/02/18 12:25:33;;;;;;;68.97;12.05;;;13.30;99.90;;;;;;4883500;29;20202;-84
2022/02/18 12:28:17;;;;;;;70.38;14.05;;;13.30;99.90;;;;;;4885027;29;20182;-83
2022/02/18 12:30:57;;;;;;;67.88;11.55;;;13.40;99.90;;;;;;4885284;29;20170;-83
2022/02/18 12:33:24;;;;;;;67.28;9.88;;;13.40;99.90;;;;;;4883222;29;20198;-83
2022/02/18 12:35:50;;;;;;;79.13;29.92;;;13.40;99.90;;;;;;4882867;29;20194;-82
2022/02/18 12:38:17;;;;;;;69.13;13.70;;;13.30;99.90;;;;;;4884309;29;20208;-83
2022/02/18 12:41:10;;;;;;;69.05;14.10;;;13.40;99.90;;;;;;4884816;29;20471;-84
2022/02/18 12:43:37;;;;;;;67.22;9.52;;;13.40;99.90;;;;;;4884377;29;20203;-84
2022/02/18 12:46:05;;;;;;;68.80;13.82;;;13.50;99.90;;;;;;4883826;29;20363;-83
2022/02/18 12:49:03;;;;;;;67.18;9.32;;;13.50;99.90;;;;;;4883914;29;20201;-83
2022/02/18 12:51:29;;;;;;;67.00;6.43;;;13.50;99.90;;;;;;4851766;29;20193;-83
2022/02/18 12:53:56;;;;;;;76.87;24.87;;;13.60;99.90;;;;;;4883991;29;20555;-84
2022/02/18 12:56:28;;;;;;;66.43;7.80;;;13.60;99.90;;;;;;4881448;29;20223;-83
2022/02/18 12:58:59;;;;;;;67.97;11.02;;;13.70;1.00;;;;;;4884898;29;20265;-84
2022/02/18 13:01:29;;;;;;;68.53;12.43;;;13.70;1.00;;;;;;4884590;29;20158;-84
2022/02/18 13:03:55;;;;;;;69.05;13.65;;;13.70;1.00;;;;;;4884154;29;20173;-84
2022/02/18 13:06:24;;;;;;;67.47;9.75;;;13.70;99.90;;;;;;4884661;29;20195;-84
2022/02/18 13:08:52;;;;;;;67.20;9.50;;;13.70;99.90;;;;;;4884455;29;20178;-84
2022/02/18 13:11:22;;;;;;;67.93;9.95;;;13.60;99.90;;;;;;4883880;29;20623;-84
2022/02/18 13:13:48;;;;;;;70.20;15.30;;;13.60;99.90;;;;;;4884289;29;20611;-84
2022/02/18 13:16:17;;;;;;;70.77;19.47;;;13.60;99.90;;;;;;4882193;29;20447;-83
2022/02/18 13:18:43;;;;;;;69.85;16.63;;;13.50;1.00;;;;;;4882583;29;20599;-84
2022/02/18 13:21:09;;;;;;;72.87;17.67;;;13.40;99.90;;;;;;4882476;29;20175;-84
2022/02/18 13:23:35;;;;;;;69.88;18.10;;;13.50;51.70;;;;;;4884134;29;20223;-84
2022/02/18 13:26:09;;;;;;;72.30;18.37;;;13.50;30.10;;;;;;4883554;29;20193;-84
2022/02/18 13:28:38;;;;;;;70.45;18.83;;;13.50;99.90;;;;;;4884380;29;20418;-84
2022/02/18 13:31:07;;;;;;;84.43;40.65;;;13.50;99.90;;;;;;4884704;29;20658;-84
2022/02/18 13:33:34;;;;;;;71.55;16.83;;;13.60;1.00;;;;;;4884654;29;20197;-84
2022/02/18 13:36:08;;;;;;;80.30;29.85;;;13.70;99.90;;;;;;4884050;29;20178;-83
2022/02/18 13:38:40;;;;;;;68.68;9.73;;;13.70;60.40;;;;;;4883469;29;20623;-83
2022/02/18 13:41:27;;;;;;;68.20;10.50;;;13.90;99.90;;;;;;4881578;29;20182;-83
2022/02/18 13:43:56;;;;;;;78.43;24.65;;;14.00;99.90;;;;;;4879068;29;20182;-84
2022/02/18 13:46:30;;;;;;;67.07;8.30;;;14.00;99.90;;;;;;4884107;29;20569;-83
2022/02/18 13:49:07;;;;;;;69.65;11.82;;;14.20;99.90;;;;;;4883765;29;20174;-84
2022/02/18 13:51:35;;;;;;;66.45;6.70;;;14.20;99.90;;;;;;4883725;29;20177;-84
2022/02/18 13:54:01;;;;;;;66.47;6.85;;;14.40;99.90;;;;;;4883273;29;20194;-83
2022/02/18 13:56:31;;;;;;;66.20;7.27;;;14.50;99.90;;;;;;4883259;29;20289;-84
2022/02/18 13:59:22;;;;;;;78.27;22.23;;;14.50;99.90;;;;;;4882687;29;20426;-84
2022/02/18 14:01:54;;;;;;;67.77;6.00;;;14.50;1.00;;;;;;4883139;29;20486;-84
2022/02/18 14:04:25;;;;;;;67.57;7.40;;;14.50;99.90;;;;;;4883596;29;20398;-84
2022/02/18 14:07:18;;;;;;;76.00;18.90;;;14.30;99.90;;;;;;4884366;29;20435;-83
2022/02/18 14:09:52;;;;;;;69.78;11.55;;;14.30;1.00;;;;;;4884863;29;20427;-84
2022/02/18 14:12:46;;;;;;;67.05;8.93;;;14.40;1.00;;;;;;4888047;29;20157;-84
2022/02/18 14:15:17;;;;;;;66.03;6.90;;;14.40;1.00;;;;;;4888052;29;20202;-83
2022/02/18 14:17:43;;;;;;;66.53;6.82;;;14.50;64.60;;;;;;4886299;29;20415;-84
2022/02/18 14:20:14;;;;;;;66.77;8.07;;;14.40;41.70;;;;;;4885665;29;20171;-84
2022/02/18 14:22:53;;;;;;;;;;;;;;;;;;;;;
2022/02/18 14:25:34;;;;;;;85.53;34.30;;;14.10;1.00;;;;;;4887562;29;20509;-84
2022/02/18 14:28:27;;;;;;;67.30;7.50;;;14.10;99.90;;;;;;4886930;29;20166;-84
2022/02/18 14:31:02;;;;;;;67.05;8.70;;;14.10;1.00;;;;;;4885539;29;20190;-84
2022/02/18 14:33:32;;;;;;;67.57;8.70;;;13.90;1.00;;;;;;4887336;29;20193;-84
2022/02/18 14:35:59;;;;;;;69.90;13.20;;;13.90;95.00;;;;;;4887764;29;20269;-84
2022/02/18 14:38:25;;;;;;;70.17;16.57;;;13.90;9.10;;;;;;4887313;29;20840;-84
2022/02/18 14:40:56;;;;;;;100.53;71.77;;;13.80;1.00;;;;;;4886337;29;20764;-86
2022/02/18 14:43:22;;;;;;;94.43;55.35;;;13.60;93.50;;;;;;4884759;29;20435;-88
2022/02/18 14:45:47;;;;;;;80.67;36.23;;;12.80;1.00;;;;;;4886235;29;20190;-85
2022/02/18 14:48:13;;;;;;;105.40;90.93;;;12.10;99.90;;;;;;4888718;29;20415;-85
2022/02/18 14:50:42;;;;;;;95.80;75.73;;;11.80;99.90;;;;;;4888550;29;20174;-85
2022/02/18 14:53:17;;;;;;;92.90;70.10;;;11.50;99.90;;;;;;4887854;29;20423;-84
2022/02/18 14:55:44;;;;;;;101.75;89.90;;;11.20;99.90;;;;;;4885563;29;20192;-84
2022/02/18 14:58:10;;;;;;;121.90;109.75;;;11.00;99.90;;;;;;4886586;29;20183;-84
2022/02/18 15:00:36;;;;;;;175.70;162.20;;;10.90;99.90;;;;;;4887125;29;20197;-84
2022/02/18 15:03:03;;;;;;;146.00;133.83;;;10.80;99.90;;;;;;4886960;29;20175;-84
2022/02/18 15:05:37;;;;;;;125.13;113.15;;;10.70;99.90;;;;;;4886826;29;20197;-84